Time;durP1;ratioP1;P1;durP2;ratioP2;P2;SDS_P1;SDS_P2;PMS_P1;PMS_P2;Temp;Humidity;BMP_temperature;BMP_pressure;BME280_temperature;BME280_humidity;BME280_pressure;Samples;Min_cycle;Max_cycle;Signal;HPM_P1;HPM_P2
2021/05/21 00:00:32;;;;;;;;;;;;;;;;;;1479289;40;7048;-61
2021/05/21 00:01:35;;;;;;;;;;;;;;;;;;1479473;40;7122;-65
2021/05/21 00:02:37;;;;;;;;;;;;;;;;;;1479212;40;7917;-62
2021/05/21 00:03:40;;;;;;;;;;;;;;;;;;1479740;40;7128;-63
2021/05/21 00:04:43;;;;;;;;;;;;;;;;;;1479843;40;7039;-63
2021/05/21 00:05:45;;;;;;;;;;;;;;;;;;1479354;40;7932;-64
2021/05/21 00:06:48;;;;;;;;;;;;;;;;;;1479422;40;7039;-63
2021/05/21 00:07:50;;;;;;;;;;;;;;;;;;1479339;40;8270;-63
2021/05/21 00:08:53;;;;;;;;;;;;;;;;;;1479078;40;7035;-61
2021/05/21 00:09:55;;;;;;;;;;;;;;;;;;1479160;40;7035;-61
2021/05/21 00:10:57;;;;;;;;;;;;;;;;;;1479031;40;6999;-66
2021/05/21 00:12:00;;;;;;;;;;;;;;;;;;1479145;40;7829;-65
2021/05/21 00:13:03;;;;;;;;;;;;;;;;;;1479132;40;7035;-61
2021/05/21 00:14:06;;;;;;;;;;;;;;;;;;1479389;40;7197;-64
2021/05/21 00:15:08;;;;;;;;;;;;;;;;;;1482889;40;7063;-64
2021/05/21 00:16:11;;;;;;;;;;;;;;;;;;1483099;40;7034;-64
2021/05/21 00:17:14;;;;;;;;;;;;;;;;;;1478346;40;7143;-62
2021/05/21 00:18:16;;;;;;;;;;;;;;;;;;1481751;40;8467;-63
2021/05/21 00:19:18;;;;;;;;;;;;;;;;;;1480159;40;7008;-64
2021/05/21 00:20:21;;;;;;;;;;;;;;;;;;1483200;40;7039;-65
2021/05/21 00:21:23;;;;;;;;;;;;;;;;;;1481813;40;7031;-62
2021/05/21 00:22:26;;;;;;;;;;;;;;;;;;1478720;40;7056;-63
2021/05/21 00:23:29;;;;;;;;;;;;;;;;;;1478808;40;7126;-64
2021/05/21 00:24:31;;;;;;;;;;;;;;;;;;1478964;40;7031;-61
2021/05/21 00:25:34;;;;;;;;;;;;;;;;;;1479043;40;7004;-63
2021/05/21 00:26:36;;;;;;;;;;;;;;;;;;1478747;40;7226;-65
2021/05/21 00:27:38;;;;;;;;;;;;;;;;;;1478634;40;7027;-64
2021/05/21 00:28:41;;;;;;;;;;;;;;;;;;1478987;40;7031;-63
2021/05/21 00:29:43;;;;;;;;;;;;;;;;;;1482679;40;7915;-62
2021/05/21 00:30:46;;;;;;;;;;;;;;;;;;1480101;40;8850;-62
2021/05/21 00:31:48;;;;;;;;;;;;;;;;;;1478719;40;7038;-64
2021/05/21 00:32:51;;;;;;;;;;;;;;;;;;1479075;40;7060;-62
2021/05/21 00:33:53;;;;;;;;;;;;;;;;;;1479156;40;7962;-63
2021/05/21 00:34:55;;;;;;;;;;;;;;;;;;1479336;40;7011;-64
2021/05/21 00:35:58;;;;;;;;;;;;;;;;;;1478599;40;7106;-64
2021/05/21 00:37:00;;;;;;;;;;;;;;;;;;1479285;40;7084;-63
2021/05/21 00:38:03;;;;;;;;;;;;;;;;;;1479131;40;7142;-65
2021/05/21 00:39:05;;;;;;;;;;;;;;;;;;1479204;40;7202;-62
2021/05/21 00:40:08;;;;;;;;;;;;;;;;;;1478966;40;7841;-64
2021/05/21 00:41:11;;;;;;;;;;;;;;;;;;1479103;40;7035;-60
2021/05/21 00:42:13;;;;;;;;;;;;;;;;;;1479108;40;7039;-64
2021/05/21 00:43:16;;;;;;;;;;;;;;;;;;1479394;40;7122;-64
2021/05/21 00:44:18;;;;;;;;;;;;;;;;;;1478996;40;7124;-64
2021/05/21 00:45:21;;;;;;;;;;;;;;;;;;1479365;40;7897;-62
2021/05/21 00:46:23;;;;;;;;;;;;;;;;;;1482069;40;7012;-65
2021/05/21 00:47:27;;;;;;;;;;;;;;;;;;1483242;40;7930;-65
2021/05/21 00:48:30;;;;;;;;;;;;;;;;;;1483006;40;7003;-62
2021/05/21 00:49:33;;;;;;;;;;;;;;;;;;1479547;40;7044;-62
2021/05/21 00:50:36;;;;;;;;;;;;;;;;;;1478695;40;7107;-61
2021/05/21 00:51:38;;;;;;;;;;;;;;;;;;1479664;40;7042;-64
2021/05/21 00:52:42;;;;;;;;;;;;;;;;;;1479123;40;7966;-62
2021/05/21 00:53:45;;;;;;;;;;;;;;;;;;1479158;40;7957;-66
2021/05/21 00:54:48;;;;;;;;;;;;;;;;;;1479209;40;7003;-62
2021/05/21 00:55:50;;;;;;;;;;;;;;;;;;1479228;40;7039;-66
2021/05/21 00:56:53;;;;;;;;;;;;;;;;;;1479105;40;7009;-64
2021/05/21 00:57:55;;;;;;;;;;;;;;;;;;1479075;40;8006;-63
2021/05/21 00:58:58;;;;;;;;;;;;;;;;;;1479168;40;7035;-67
2021/05/21 01:00:01;;;;;;;;;;;;;;;;;;1479218;40;7235;-61
2021/05/21 01:01:04;;;;;;;;;;;;;;;;;;1479097;40;7035;-65
2021/05/21 01:02:08;;;;;;;;;;;;;;;;;;1479188;40;6999;-62
2021/05/21 01:03:10;;;;;;;;;;;;;;;;;;1478917;40;7009;-65
2021/05/21 01:04:13;;;;;;;;;;;;;;;;;;1479171;40;7950;-61
2021/05/21 01:05:16;;;;;;;;;;;;;;;;;;1479239;40;8759;-63
2021/05/21 01:06:18;;;;;;;;;;;;;;;;;;1479034;40;7007;-65
2021/05/21 01:07:20;;;;;;;;;;;;;;;;;;1478715;40;7051;-61
2021/05/21 01:08:23;;;;;;;;;;;;;;;;;;1479469;40;7975;-64
2021/05/21 01:09:37;;;;;;;;;;;;;;;;;;1479210;40;8842;-63
2021/05/21 01:10:40;;;;;;;;;;;;;;;;;;1479211;40;7132;-64
2021/05/21 01:11:42;;;;;;;;;;;;;;;;;;1479354;40;7958;-63
2021/05/21 01:12:45;;;;;;;;;;;;;;;;;;1479175;40;7226;-66
2021/05/21 01:13:48;;;;;;;;;;;;;;;;;;1479293;40;7920;-62
2021/05/21 01:14:51;;;;;;;;;;;;;;;;;;1479164;40;8042;-64
2021/05/21 01:15:54;;;;;;;;;;;;;;;;;;1479103;40;7277;-60
2021/05/21 01:16:56;;;;;;;;;;;;;;;;;;1479170;40;7887;-62
2021/05/21 01:17:59;;;;;;;;;;;;;;;;;;1480553;40;7015;-65
2021/05/21 01:19:04;;;;;;;;;;;;;;;;;;1479440;40;7916;-62
2021/05/21 01:20:08;;;;;;;;;;;;;;;;;;1483223;40;7150;-63
2021/05/21 01:21:10;;;;;;;;;;;;;;;;;;1482818;40;7008;-62
2021/05/21 01:22:14;;;;;;;;;;;;;;;;;;1479152;40;7182;-64
2021/05/21 01:23:17;;;;;;;;;;;;;;;;;;1479785;40;7052;-66
2021/05/21 01:24:19;;;;;;;;;;;;;;;;;;1483203;40;7686;-61
2021/05/21 01:25:22;;;;;;;;;;;;;;;;;;1483227;40;7019;-64
2021/05/21 01:26:25;;;;;;;;;;;;;;;;;;1483097;40;7131;-63
2021/05/21 01:27:28;;;;;;;;;;;;;;;;;;1482828;40;7151;-63
2021/05/21 01:28:30;;;;;;;;;;;;;;;;;;1479089;40;6983;-63
2021/05/21 01:29:33;;;;;;;;;;;;;;;;;;1478779;40;7050;-60
2021/05/21 01:30:36;;;;;;;;;;;;;;;;;;1478970;40;7007;-63
2021/05/21 01:31:42;;;;;;;;;;;;;;;;;;1478871;40;7047;-66
2021/05/21 01:32:47;;;;;;;;;;;;;;;;;;1479019;40;7859;-62
2021/05/21 01:33:50;;;;;;;;;;;;;;;;;;1479037;40;7035;-63
2021/05/21 01:34:53;;;;;;;;;;;;;;;;;;1478720;40;7931;-62
2021/05/21 01:35:55;;;;;;;;;;;;;;;;;;1478393;40;7907;-62
2021/05/21 01:36:58;;;;;;;;;;;;;;;;;;1478851;40;7919;-61
2021/05/21 01:38:01;;;;;;;;;;;;;;;;;;1478691;40;7031;-61
2021/05/21 01:39:09;;;;;;;;;;;;;;;;;;1479323;40;7027;-62
2021/05/21 01:40:13;;;;;;;;;;;;;;;;;;1479321;40;7203;-63
2021/05/21 01:41:16;;;;;;;;;;;;;;;;;;1479436;40;7101;-63
2021/05/21 01:42:19;;;;;;;;;;;;;;;;;;1479076;40;7980;-61
2021/05/21 01:43:21;;;;;;;;;;;;;;;;;;1479522;40;7100;-65
2021/05/21 01:44:24;;;;;;;;;;;;;;;;;;1482901;40;7119;-67
2021/05/21 01:45:27;;;;;;;;;;;;;;;;;;1482945;40;7892;-62
2021/05/21 01:46:29;;;;;;;;;;;;;;;;;;1482579;40;7863;-61
2021/05/21 01:47:32;;;;;;;;;;;;;;;;;;1483391;40;7031;-63
2021/05/21 01:48:34;;;;;;;;;;;;;;;;;;1483242;40;7016;-63
2021/05/21 01:49:36;;;;;;;;;;;;;;;;;;1483305;40;7031;-64
2021/05/21 01:50:39;;;;;;;;;;;;;;;;;;1482966;40;7855;-67
2021/05/21 01:51:57;;;;;;;;;;;;;;;;;;1486847;40;7918;-62
2021/05/21 01:52:59;;;;;;;;;;;;;;;;;;1486042;40;7039;-60
2021/05/21 01:54:08;;;;;;;;;;;;;;;;;;1483192;40;7894;-63
2021/05/21 01:55:12;;;;;;;;;;;;;;;;;;1483225;40;7881;-61
2021/05/21 01:56:15;;;;;;;;;;;;;;;;;;1483358;40;7103;-63
2021/05/21 01:57:18;;;;;;;;;;;;;;;;;;1483015;40;7904;-64
2021/05/21 01:58:20;;;;;;;;;;;;;;;;;;1482943;40;7083;-65
2021/05/21 01:59:23;;;;;;;;;;;;;;;;;;1483302;40;7898;-63
2021/05/21 02:00:26;;;;;;;;;;;;;;;;;;1483494;40;7007;-64
2021/05/21 02:01:28;;;;;;;;;;;;;;;;;;1483486;40;7112;-65
2021/05/21 02:02:31;;;;;;;;;;;;;;;;;;1483399;40;7035;-64
2021/05/21 02:03:33;;;;;;;;;;;;;;;;;;1483091;40;7020;-64
2021/05/21 02:04:38;;;;;;;;;;;;;;;;;;1483116;40;7903;-60
2021/05/21 02:05:40;;;;;;;;;;;;;;;;;;1478967;40;8055;-63
2021/05/21 02:06:42;;;;;;;;;;;;;;;;;;1478967;40;7118;-62
2021/05/21 02:07:46;;;;;;;;;;;;;;;;;;1478930;40;7012;-63
2021/05/21 02:08:48;;;;;;;;;;;;;;;;;;1479131;40;7126;-66
2021/05/21 02:09:55;;;;;;;;;;;;;;;;;;1479163;40;7206;-63
2021/05/21 02:10:57;;;;;;;;;;;;;;;;;;1479122;40;7012;-63
2021/05/21 02:12:04;;;;;;;;;;;;;;;;;;1479134;40;7008;-62
2021/05/21 02:13:06;;;;;;;;;;;;;;;;;;1479238;40;7007;-63
2021/05/21 02:14:09;;;;;;;;;;;;;;;;;;1478802;40;7238;-63
2021/05/21 02:15:12;;;;;;;;;;;;;;;;;;1483000;40;7900;-61
2021/05/21 02:16:15;;;;;;;;;;;;;;;;;;1482891;40;7041;-65
2021/05/21 02:17:17;;;;;;;;;;;;;;;;;;1482396;40;7000;-65
2021/05/21 02:18:19;;;;;;;;;;;;;;;;;;1478448;40;7422;-65
2021/05/21 02:19:22;;;;;;;;;;;;;;;;;;1481010;40;7904;-65
2021/05/21 02:20:24;;;;;;;;;;;;;;;;;;1482811;40;7043;-65
2021/05/21 02:21:33;;;;;;;;;;;;;;;;;;1481697;40;7031;-63
2021/05/21 02:22:39;;;;;;;;;;;;;;;;;;1477650;40;7031;-63
2021/05/21 02:23:41;;;;;;;;;;;;;;;;;;1478465;40;7062;-63
2021/05/21 02:24:43;;;;;;;;;;;;;;;;;;1478565;40;7059;-63
2021/05/21 02:25:46;;;;;;;;;;;;;;;;;;1478559;40;7007;-61
2021/05/21 02:26:50;;;;;;;;;;;;;;;;;;1478776;40;7036;-64
2021/05/21 02:27:53;;;;;;;;;;;;;;;;;;1478890;40;7047;-65
2021/05/21 02:28:55;;;;;;;;;;;;;;;;;;1482830;40;7872;-65
2021/05/21 02:29:58;;;;;;;;;;;;;;;;;;1481846;40;7031;-63
2021/05/21 02:31:00;;;;;;;;;;;;;;;;;;1478579;40;7063;-64
2021/05/21 02:32:03;;;;;;;;;;;;;;;;;;1478850;40;7119;-64
2021/05/21 02:33:05;;;;;;;;;;;;;;;;;;1479046;40;7950;-63
2021/05/21 02:34:08;;;;;;;;;;;;;;;;;;1478906;40;8006;-64
2021/05/21 02:35:11;;;;;;;;;;;;;;;;;;1478452;40;7042;-65
2021/05/21 02:36:14;;;;;;;;;;;;;;;;;;1477848;40;7012;-63
2021/05/21 02:37:17;;;;;;;;;;;;;;;;;;1478788;40;6999;-62
2021/05/21 02:38:19;;;;;;;;;;;;;;;;;;1479063;40;7043;-64
2021/05/21 02:39:22;;;;;;;;;;;;;;;;;;1479407;40;7000;-64
2021/05/21 02:40:24;;;;;;;;;;;;;;;;;;1478788;40;7035;-64
2021/05/21 02:41:27;;;;;;;;;;;;;;;;;;1478840;40;7019;-62
2021/05/21 02:42:29;;;;;;;;;;;;;;;;;;1483445;40;7043;-63
2021/05/21 02:43:31;;;;;;;;;;;;;;;;;;1482798;40;7007;-65
2021/05/21 02:44:34;;;;;;;;;;;;;;;;;;1482769;40;7016;-64
2021/05/21 02:45:36;;;;;;;;;;;;;;;;;;1483137;40;6993;-65
2021/05/21 02:46:39;;;;;;;;;;;;;;;;;;1483263;40;7016;-63
2021/05/21 02:47:41;;;;;;;;;;;;;;;;;;1483094;40;7007;-62
2021/05/21 02:48:44;;;;;;;;;;;;;;;;;;1482950;40;7125;-64
2021/05/21 02:49:46;;;;;;;;;;;;;;;;;;1483259;40;7011;-63
2021/05/21 02:50:48;;;;;;;;;;;;;;;;;;1483178;40;8846;-64
2021/05/21 02:51:52;;;;;;;;;;;;;;;;;;1483206;40;7477;-64
2021/05/21 02:52:54;;;;;;;;;;;;;;;;;;1482788;40;7108;-65
2021/05/21 02:53:56;;;;;;;;;;;;;;;;;;1482989;40;7305;-65
2021/05/21 02:54:59;;;;;;;;;;;;;;;;;;1482968;40;7207;-64
2021/05/21 02:56:01;;;;;;;;;;;;;;;;;;1483102;40;7008;-66
2021/05/21 02:57:04;;;;;;;;;;;;;;;;;;1482757;40;7043;-65
2021/05/21 02:58:06;;;;;;;;;;;;;;;;;;1482936;40;7857;-62
2021/05/21 02:59:09;;;;;;;;;;;;;;;;;;1483038;40;7008;-65
2021/05/21 03:00:12;;;;;;;;;;;;;;;;;;1483031;40;7039;-62
2021/05/21 03:01:14;;;;;;;;;;;;;;;;;;1483129;40;7008;-62
2021/05/21 03:02:17;;;;;;;;;;;;;;;;;;1483474;40;7118;-62
2021/05/21 03:03:19;;;;;;;;;;;;;;;;;;1482879;40;7003;-63
2021/05/21 03:04:22;;;;;;;;;;;;;;;;;;1482445;40;7873;-65
2021/05/21 03:05:25;;;;;;;;;;;;;;;;;;1479606;40;8004;-63
2021/05/21 03:06:27;;;;;;;;;;;;;;;;;;1478538;40;7008;-64
2021/05/21 03:07:29;;;;;;;;;;;;;;;;;;1478586;40;7047;-61
2021/05/21 03:08:32;;;;;;;;;;;;;;;;;;1479166;40;7131;-62
2021/05/21 03:09:34;;;;;;;;;;;;;;;;;;1479070;40;7016;-62
2021/05/21 03:10:36;;;;;;;;;;;;;;;;;;1478676;40;7050;-64
2021/05/21 03:11:39;;;;;;;;;;;;;;;;;;1478650;40;7036;-63
2021/05/21 03:12:41;;;;;;;;;;;;;;;;;;1479397;40;7008;-61
2021/05/21 03:13:44;;;;;;;;;;;;;;;;;;1479486;40;7039;-64
2021/05/21 03:14:46;;;;;;;;;;;;;;;;;;1479619;40;7109;-64
2021/05/21 03:15:49;;;;;;;;;;;;;;;;;;1479486;40;7954;-65
2021/05/21 03:16:52;;;;;;;;;;;;;;;;;;1479727;40;7945;-67
2021/05/21 03:17:55;;;;;;;;;;;;;;;;;;1482235;40;7012;-65
2021/05/21 03:18:57;;;;;;;;;;;;;;;;;;1482511;40;7027;-66
2021/05/21 03:19:59;;;;;;;;;;;;;;;;;;1479249;40;7003;-63
2021/05/21 03:21:03;;;;;;;;;;;;;;;;;;1479569;40;7238;-64
2021/05/21 03:22:06;;;;;;;;;;;;;;;;;;1483375;40;7971;-64
2021/05/21 03:23:08;;;;;;;;;;;;;;;;;;1480452;40;8632;-63
2021/05/21 03:24:10;;;;;;;;;;;;;;;;;;1479138;40;7003;-64
2021/05/21 03:25:14;;;;;;;;;;;;;;;;;;1478880;40;7105;-64
2021/05/21 03:26:17;;;;;;;;;;;;;;;;;;1479104;40;7952;-66
2021/05/21 03:27:19;;;;;;;;;;;;;;;;;;1482724;40;7179;-65
2021/05/21 03:28:21;;;;;;;;;;;;;;;;;;1485637;40;7095;-65
2021/05/21 03:29:24;;;;;;;;;;;;;;;;;;1483625;40;7951;-66
2021/05/21 03:30:26;;;;;;;;;;;;;;;;;;1479725;40;7122;-65
2021/05/21 03:31:29;;;;;;;;;;;;;;;;;;1479023;40;7126;-64
2021/05/21 03:32:31;;;;;;;;;;;;;;;;;;1479475;40;8047;-61
2021/05/21 03:33:34;;;;;;;;;;;;;;;;;;1479511;40;7861;-64
2021/05/21 03:34:36;;;;;;;;;;;;;;;;;;1479428;40;7329;-62
2021/05/21 03:35:39;;;;;;;;;;;;;;;;;;1479184;40;8022;-63
2021/05/21 03:36:42;;;;;;;;;;;;;;;;;;1479138;40;7008;-64
2021/05/21 03:37:44;;;;;;;;;;;;;;;;;;1479975;39;7083;-64
2021/05/21 03:38:47;;;;;;;;;;;;;;;;;;1479465;40;7931;-62
2021/05/21 03:39:49;;;;;;;;;;;;;;;;;;1479858;40;7007;-62
2021/05/21 03:40:52;;;;;;;;;;;;;;;;;;1479222;40;7426;-64
2021/05/21 03:41:54;;;;;;;;;;;;;;;;;;1479314;40;7015;-63
2021/05/21 03:42:57;;;;;;;;;;;;;;;;;;1481669;40;8508;-62
2021/05/21 03:43:59;;;;;;;;;;;;;;;;;;1483552;40;8063;-63
2021/05/21 03:45:04;;;;;;;;;;;;;;;;;;1483063;40;7922;-63
2021/05/21 03:46:06;;;;;;;;;;;;;;;;;;1481118;40;7846;-67
2021/05/21 03:47:09;;;;;;;;;;;;;;;;;;1483477;40;7039;-64
2021/05/21 03:48:12;;;;;;;;;;;;;;;;;;1483754;40;7115;-64
2021/05/21 03:49:16;;;;;;;;;;;;;;;;;;1483366;40;7923;-65
2021/05/21 03:50:20;;;;;;;;;;;;;;;;;;1483750;40;7016;-61
2021/05/21 03:51:23;;;;;;;;;;;;;;;;;;1483637;40;7987;-61
2021/05/21 03:52:26;;;;;;;;;;;;;;;;;;1483352;40;7976;-64
2021/05/21 03:53:29;;;;;;;;;;;;;;;;;;1483400;40;7020;-64
2021/05/21 03:54:31;;;;;;;;;;;;;;;;;;1483485;40;7942;-63
2021/05/21 03:55:34;;;;;;;;;;;;;;;;;;1483353;40;7016;-62
2021/05/21 03:56:36;;;;;;;;;;;;;;;;;;1483754;40;7016;-63
2021/05/21 03:57:39;;;;;;;;;;;;;;;;;;1479680;40;7011;-63
2021/05/21 03:58:42;;;;;;;;;;;;;;;;;;1478983;40;7941;-63
2021/05/21 03:59:44;;;;;;;;;;;;;;;;;;1479628;40;7051;-62
2021/05/21 04:00:47;;;;;;;;;;;;;;;;;;1482634;40;7028;-63
2021/05/21 04:01:50;;;;;;;;;;;;;;;;;;1483408;40;7104;-65
2021/05/21 04:02:53;;;;;;;;;;;;;;;;;;1483291;40;7003;-65
2021/05/21 04:03:56;;;;;;;;;;;;;;;;;;1483369;40;7015;-65
2021/05/21 04:04:58;;;;;;;;;;;;;;;;;;1482371;40;7003;-63
2021/05/21 04:06:01;;;;;;;;;;;;;;;;;;1479333;40;7015;-62
2021/05/21 04:07:03;;;;;;;;;;;;;;;;;;1479601;40;7915;-62
2021/05/21 04:08:06;;;;;;;;;;;;;;;;;;1479618;40;7016;-62
2021/05/21 04:09:08;;;;;;;;;;;;;;;;;;1479530;40;7112;-62
2021/05/21 04:10:11;;;;;;;;;;;;;;;;;;1479437;40;7043;-64
2021/05/21 04:11:13;;;;;;;;;;;;;;;;;;1479381;40;7008;-62
2021/05/21 04:12:16;;;;;;;;;;;;;;;;;;1479113;40;7052;-63
2021/05/21 04:13:18;;;;;;;;;;;;;;;;;;1479240;40;8029;-64
2021/05/21 04:14:20;;;;;;;;;;;;;;;;;;1479391;40;7871;-63
2021/05/21 04:15:23;;;;;;;;;;;;;;;;;;1479432;40;7038;-64
2021/05/21 04:16:25;;;;;;;;;;;;;;;;;;1479346;40;7008;-63
2021/05/21 04:17:27;;;;;;;;;;;;;;;;;;1479764;40;7004;-65
2021/05/21 04:18:30;;;;;;;;;;;;;;;;;;1483350;40;7019;-62
2021/05/21 04:19:32;;;;;;;;;;;;;;;;;;1479587;40;7020;-62
2021/05/21 04:20:35;;;;;;;;;;;;;;;;;;1478685;40;8049;-64
2021/05/21 04:21:37;;;;;;;;;;;;;;;;;;1481132;40;7020;-67
2021/05/21 04:22:40;;;;;;;;;;;;;;;;;;1482397;40;7107;-66
2021/05/21 04:23:42;;;;;;;;;;;;;;;;;;1478996;40;7186;-64
2021/05/21 04:24:45;;;;;;;;;;;;;;;;;;1479093;40;7003;-65
2021/05/21 04:25:49;;;;;;;;;;;;;;;;;;1479201;40;7039;-62
2021/05/21 04:26:51;;;;;;;;;;;;;;;;;;1478515;40;7013;-63
2021/05/21 04:27:54;;;;;;;;;;;;;;;;;;1478457;40;7047;-62
2021/05/21 04:28:56;;;;;;;;;;;;;;;;;;1478988;40;7134;-62
2021/05/21 04:29:59;;;;;;;;;;;;;;;;;;1478956;40;7007;-62
2021/05/21 04:31:01;;;;;;;;;;;;;;;;;;1478655;40;7008;-62
2021/05/21 04:32:05;;;;;;;;;;;;;;;;;;1478892;40;7062;-64
2021/05/21 04:33:07;;;;;;;;;;;;;;;;;;1479241;40;7075;-64
2021/05/21 04:34:10;;;;;;;;;;;;;;;;;;1479327;40;7000;-63
2021/05/21 04:35:12;;;;;;;;;;;;;;;;;;1478716;40;7101;-63
2021/05/21 04:36:15;;;;;;;;;;;;;;;;;;1478659;40;7847;-62
2021/05/21 04:37:17;;;;;;;;;;;;;;;;;;1479332;40;7016;-61
2021/05/21 04:38:20;;;;;;;;;;;;;;;;;;1479245;40;7011;-61
2021/05/21 04:39:22;;;;;;;;;;;;;;;;;;1479583;40;7004;-62
2021/05/21 04:40:25;;;;;;;;;;;;;;;;;;1478957;40;7032;-61
2021/05/21 04:41:27;;;;;;;;;;;;;;;;;;1479061;40;7104;-63
2021/05/21 04:42:30;;;;;;;;;;;;;;;;;;1478884;40;7918;-62
2021/05/21 04:43:32;;;;;;;;;;;;;;;;;;1479021;40;7000;-66
2021/05/21 04:44:35;;;;;;;;;;;;;;;;;;1479200;40;7877;-64
2021/05/21 04:45:37;;;;;;;;;;;;;;;;;;1479182;40;7038;-64
2021/05/21 04:46:40;;;;;;;;;;;;;;;;;;1479168;40;7194;-62
2021/05/21 04:47:43;;;;;;;;;;;;;;;;;;1479399;40;7031;-63
2021/05/21 04:48:45;;;;;;;;;;;;;;;;;;1479753;40;7007;-62
2021/05/21 04:49:47;;;;;;;;;;;;;;;;;;1478974;40;7190;-63
2021/05/21 04:50:50;;;;;;;;;;;;;;;;;;1479445;40;7007;-63
2021/05/21 04:51:53;;;;;;;;;;;;;;;;;;1478970;40;7109;-62
2021/05/21 04:52:55;;;;;;;;;;;;;;;;;;1479051;40;7891;-64
2021/05/21 04:54:04;;;;;;;;;;;;;;;;;;1479403;40;7035;-63
2021/05/21 04:55:07;;;;;;;;;;;;;;;;;;1479482;40;7199;-63
2021/05/21 04:56:10;;;;;;;;;;;;;;;;;;1479858;40;7067;-64
2021/05/21 04:57:13;;;;;;;;;;;;;;;;;;1479671;40;7012;-64
2021/05/21 04:58:16;;;;;;;;;;;;;;;;;;1479649;40;7012;-63
2021/05/21 04:59:20;;;;;;;;;;;;;;;;;;1483529;40;7083;-64
2021/05/21 05:00:22;;;;;;;;;;;;;;;;;;1483690;40;6999;-62
2021/05/21 05:01:24;;;;;;;;;;;;;;;;;;1483126;40;7008;-61
2021/05/21 05:02:27;;;;;;;;;;;;;;;;;;1483061;40;7125;-64
2021/05/21 05:03:30;;;;;;;;;;;;;;;;;;1483348;40;7039;-62
2021/05/21 05:04:32;;;;;;;;;;;;;;;;;;1483241;40;7133;-63
2021/05/21 05:05:35;;;;;;;;;;;;;;;;;;1482160;40;7023;-64
2021/05/21 05:06:37;;;;;;;;;;;;;;;;;;1482991;40;7939;-62
2021/05/21 05:07:40;;;;;;;;;;;;;;;;;;1483336;40;8075;-63
2021/05/21 05:08:42;;;;;;;;;;;;;;;;;;1483532;40;7875;-66
2021/05/21 05:09:45;;;;;;;;;;;;;;;;;;1479532;40;7222;-62
2021/05/21 05:10:49;;;;;;;;;;;;;;;;;;1479299;40;7003;-63
2021/05/21 05:11:51;;;;;;;;;;;;;;;;;;1479538;40;7023;-64
2021/05/21 05:12:54;;;;;;;;;;;;;;;;;;1479364;40;7122;-65
2021/05/21 05:13:56;;;;;;;;;;;;;;;;;;1479156;40;7007;-62
2021/05/21 05:14:58;;;;;;;;;;;;;;;;;;1479023;40;7003;-65
2021/05/21 05:16:01;;;;;;;;;;;;;;;;;;1479124;40;7044;-60
2021/05/21 05:17:03;;;;;;;;;;;;;;;;;;1479062;40;7040;-63
2021/05/21 05:18:06;;;;;;;;;;;;;;;;;;1482639;40;7044;-65
2021/05/21 05:19:09;;;;;;;;;;;;;;;;;;1481196;40;6999;-65
2021/05/21 05:20:11;;;;;;;;;;;;;;;;;;1479328;40;6999;-63
2021/05/21 05:21:14;;;;;;;;;;;;;;;;;;1479808;40;7258;-64
2021/05/21 05:22:16;;;;;;;;;;;;;;;;;;1478722;40;7043;-65
2021/05/21 05:23:19;;;;;;;;;;;;;;;;;;1478662;40;7950;-62
2021/05/21 05:24:22;;;;;;;;;;;;;;;;;;1481295;40;7854;-63
2021/05/21 05:25:24;;;;;;;;;;;;;;;;;;1482680;40;7858;-64
2021/05/21 05:26:27;;;;;;;;;;;;;;;;;;1482769;40;7186;-63
2021/05/21 05:27:29;;;;;;;;;;;;;;;;;;1482570;40;7954;-62
2021/05/21 05:28:32;;;;;;;;;;;;;;;;;;1479364;40;7035;-63
2021/05/21 05:29:35;;;;;;;;;;;;;;;;;;1478923;40;7035;-64
2021/05/21 05:30:37;;;;;;;;;;;;;;;;;;1478715;40;7135;-62
2021/05/21 05:31:40;;;;;;;;;;;;;;;;;;1478458;40;7062;-62
2021/05/21 05:32:42;;;;;;;;;;;;;;;;;;1478935;40;7008;-64
2021/05/21 05:33:46;;;;;;;;;;;;;;;;;;1479094;40;6999;-64
2021/05/21 05:34:48;;;;;;;;;;;;;;;;;;1480286;40;7894;-60
2021/05/21 05:35:50;;;;;;;;;;;;;;;;;;1482648;40;7203;-64
2021/05/21 05:36:54;;;;;;;;;;;;;;;;;;1482889;40;9294;-62
2021/05/21 05:37:56;;;;;;;;;;;;;;;;;;1483246;40;8472;-63
2021/05/21 05:38:59;;;;;;;;;;;;;;;;;;1483441;40;7895;-62
2021/05/21 05:40:02;;;;;;;;;;;;;;;;;;1483353;40;7039;-62
2021/05/21 05:41:04;;;;;;;;;;;;;;;;;;1483516;40;7258;-63
2021/05/21 05:42:07;;;;;;;;;;;;;;;;;;1483451;40;7004;-61
2021/05/21 05:43:09;;;;;;;;;;;;;;;;;;1483313;40;7003;-62
2021/05/21 05:44:12;;;;;;;;;;;;;;;;;;1483327;40;7012;-63
2021/05/21 05:45:14;;;;;;;;;;;;;;;;;;1483601;40;7043;-63
2021/05/21 05:46:20;;;;;;;;;;;;;;;;;;1480055;40;7003;-64
2021/05/21 05:47:23;;;;;;;;;;;;;;;;;;1479268;40;7003;-64
2021/05/21 05:48:25;;;;;;;;;;;;;;;;;;1479092;40;7106;-62
2021/05/21 05:49:27;;;;;;;;;;;;;;;;;;1479191;40;7003;-64
2021/05/21 05:50:30;;;;;;;;;;;;;;;;;;1479001;40;7119;-63
2021/05/21 05:51:32;;;;;;;;;;;;;;;;;;1479289;40;7044;-64
2021/05/21 05:52:34;;;;;;;;;;;;;;;;;;1479324;40;7208;-64
2021/05/21 05:53:37;;;;;;;;;;;;;;;;;;1478619;40;7872;-62
2021/05/21 05:54:39;;;;;;;;;;;;;;;;;;1479282;40;7007;-62
2021/05/21 05:55:42;;;;;;;;;;;;;;;;;;1479020;40;7007;-63
2021/05/21 05:56:44;;;;;;;;;;;;;;;;;;1479159;40;7095;-63
2021/05/21 05:57:46;;;;;;;;;;;;;;;;;;1478958;40;7003;-62
2021/05/21 05:58:49;;;;;;;;;;;;;;;;;;1479114;40;7027;-65
2021/05/21 05:59:51;;;;;;;;;;;;;;;;;;1479739;40;7003;-65
2021/05/21 06:00:54;;;;;;;;;;;;;;;;;;1482889;40;7003;-63
2021/05/21 06:01:56;;;;;;;;;;;;;;;;;;1479410;40;7004;-66
2021/05/21 06:03:09;;;;;;;;;;;;;;;;;;1479142;40;7926;-62
2021/05/21 06:04:11;;;;;;;;;;;;;;;;;;1479229;40;7030;-61
2021/05/21 06:05:14;;;;;;;;;;;;;;;;;;1479116;40;7039;-63
2021/05/21 06:06:16;;;;;;;;;;;;;;;;;;1478924;40;7186;-66
2021/05/21 06:07:30;;;;;;;;;;;;;;;;;;1479164;40;7039;-63
2021/05/21 06:08:32;;;;;;;;;;;;;;;;;;1479420;40;7039;-62
2021/05/21 06:09:34;;;;;;;;;;;;;;;;;;1479283;40;7000;-65
2021/05/21 06:10:38;;;;;;;;;;;;;;;;;;1479503;40;7004;-61
2021/05/21 06:11:40;;;;;;;;;;;;;;;;;;1478602;40;7900;-63
2021/05/21 06:12:44;;;;;;;;;;;;;;;;;;1478968;40;7004;-62
2021/05/21 06:13:46;;;;;;;;;;;;;;;;;;1479160;40;7051;-63
2021/05/21 06:14:49;;;;;;;;;;;;;;;;;;1479155;40;7003;-63
2021/05/21 06:15:51;;;;;;;;;;;;;;;;;;1478890;40;8002;-63
2021/05/21 06:16:54;;;;;;;;;;;;;;;;;;1479195;40;7013;-64
2021/05/21 06:17:57;;;;;;;;;;;;;;;;;;1481774;40;6976;-61
2021/05/21 06:19:00;;;;;;;;;;;;;;;;;;1481845;40;7012;-62
2021/05/21 06:20:02;;;;;;;;;;;;;;;;;;1478935;40;7839;-63
2021/05/21 06:21:05;;;;;;;;;;;;;;;;;;1479509;40;7007;-63
2021/05/21 06:22:07;;;;;;;;;;;;;;;;;;1478784;40;7069;-67
2021/05/21 06:23:10;;;;;;;;;;;;;;;;;;1479282;40;7044;-61
2021/05/21 06:24:14;;;;;;;;;;;;;;;;;;1479615;40;7915;-63
2021/05/21 06:25:21;;;;;;;;;;;;;;;;;;1478735;40;7044;-61
2021/05/21 06:27:29;;;;;;;;;;;;;;;;;;1479060;40;7879;-61
2021/05/21 06:28:31;;;;;;;;;;;;;;;;;;1483458;40;7174;-64
2021/05/21 06:29:33;;;;;;;;;;;;;;;;;;1482834;40;7178;-66
2021/05/21 06:30:37;;;;;;;;;;;;;;;;;;1479039;40;6988;-64
2021/05/21 06:31:39;;;;;;;;;;;;;;;;;;1479006;40;7004;-63
2021/05/21 06:32:43;;;;;;;;;;;;;;;;;;1479347;40;6999;-63
2021/05/21 06:33:46;;;;;;;;;;;;;;;;;;1479365;40;7007;-64
2021/05/21 06:34:48;;;;;;;;;;;;;;;;;;1479245;40;7007;-62
2021/05/21 06:35:58;;;;;;;;;;;;;;;;;;1478167;40;6999;-62
2021/05/21 06:37:01;;;;;;;;;;;;;;;;;;1479217;40;6999;-63
2021/05/21 06:38:04;;;;;;;;;;;;;;;;;;1479164;40;7195;-61
2021/05/21 06:39:06;;;;;;;;;;;;;;;;;;1479357;40;7003;-62
2021/05/21 06:40:09;;;;;;;;;;;;;;;;;;1479364;40;7027;-63
2021/05/21 06:41:11;;;;;;;;;;;;;;;;;;1479333;40;7917;-64
2021/05/21 06:42:14;;;;;;;;;;;;;;;;;;1479281;40;7003;-63
2021/05/21 06:43:19;;;;;;;;;;;;;;;;;;1479592;40;7000;-62
2021/05/21 06:44:21;;;;;;;;;;;;;;;;;;1479187;40;7017;-64
2021/05/21 06:45:26;;;;;;;;;;;;;;;;;;1479464;40;7031;-63
2021/05/21 06:46:28;;;;;;;;;;;;;;;;;;1481645;40;7011;-63
2021/05/21 06:47:31;;;;;;;;;;;;;;;;;;1483532;40;7039;-61
2021/05/21 06:48:33;;;;;;;;;;;;;;;;;;1487272;40;7052;-65
2021/05/21 06:49:38;;;;;;;;;;;;;;;;;;1483259;40;7039;-61
2021/05/21 06:50:44;;;;;;;;;;;;;;;;;;1479248;40;7000;-63
2021/05/21 06:51:46;;;;;;;;;;;;;;;;;;1478846;40;7899;-64
2021/05/21 06:52:49;;;;;;;;;;;;;;;;;;1479007;40;7109;-62
2021/05/21 06:53:51;;;;;;;;;;;;;;;;;;1479349;40;7003;-62
2021/05/21 06:54:54;;;;;;;;;;;;;;;;;;1479582;40;7043;-67
2021/05/21 06:55:57;;;;;;;;;;;;;;;;;;1479320;40;7027;-64
2021/05/21 06:56:59;;;;;;;;;;;;;;;;;;1478725;40;7897;-61
2021/05/21 06:58:02;;;;;;;;;;;;;;;;;;1479021;40;7123;-63
2021/05/21 06:59:05;;;;;;;;;;;;;;;;;;1478910;40;7048;-61
2021/05/21 07:00:08;;;;;;;;;;;;;;;;;;1479225;40;7004;-62
2021/05/21 07:01:10;;;;;;;;;;;;;;;;;;1478979;40;8385;-62
2021/05/21 07:02:12;;;;;;;;;;;;;;;;;;1479023;40;7117;-63
2021/05/21 07:03:16;;;;;;;;;;;;;;;;;;1479028;40;7003;-63
2021/05/21 07:04:21;;;;;;;;;;;;;;;;;;1478907;40;7156;-60
2021/05/21 07:05:23;;;;;;;;;;;;;;;;;;1478907;40;7016;-62
2021/05/21 07:06:25;;;;;;;;;;;;;;;;;;1479302;40;7004;-61
2021/05/21 07:07:31;;;;;;;;;;;;;;;;;;1478930;40;7048;-62
2021/05/21 07:08:33;;;;;;;;;;;;;;;;;;1479080;40;7003;-63
2021/05/21 07:09:35;;;;;;;;;;;;;;;;;;1478860;40;7106;-63
2021/05/21 07:10:38;;;;;;;;;;;;;;;;;;1479177;40;7013;-62
2021/05/21 07:11:40;;;;;;;;;;;;;;;;;;1479037;40;7831;-62
2021/05/21 07:12:45;;;;;;;;;;;;;;;;;;1479367;40;7039;-62
2021/05/21 07:13:47;;;;;;;;;;;;;;;;;;1479353;40;6995;-63
2021/05/21 07:14:50;;;;;;;;;;;;;;;;;;1479115;40;7060;-65
2021/05/21 07:15:52;;;;;;;;;;;;;;;;;;1479121;40;7039;-65
2021/05/21 07:16:54;;;;;;;;;;;;;;;;;;1479337;40;7000;-64
2021/05/21 07:17:57;;;;;;;;;;;;;;;;;;1480910;40;8497;-63